Terminal Aerodrome Forecast
Issued by NWS Charleston, WV

Current Version | Previous Version | Text Only | Print | Product List | Glossary Off
Versions: 1 2 3 4 5 6 7 8 9 10 11 12 13 14 15 16 17 18 19 20 21 22 23 24 25 26 27 28 29 30 31 32 33

000
FTUS41 KRLX 291808 AAA
TAFPKB
TAF AMD
KPKB 291808Z 2918/3018 VRB03KT P6SM VCTS SCT012 BKN035CB
     FM292000 23004KT P6SM VCTS BKN035CB
     FM300500 00000KT 4SM BR BKN050
     FM300700 00000KT 2SM BR BKN025
     FM301100 00000KT 1SM BR BKN001
     FM301600 VRB03KT P6SM VCTS BKN040CB=

USA.gov is the U.S. government's official web portal to all federal, state and local government web resources and services.